createdAt,value
2018-12-16T00:02:32.944Z,18.13
2018-12-16T00:06:35.877Z,16.13
2018-12-16T00:10:38.762Z,15.33
2018-12-16T00:14:41.977Z,15.80
2018-12-16T00:18:44.969Z,15.70
2018-12-16T00:22:48.369Z,14.93
2018-12-16T00:26:56.989Z,15.43
2018-12-16T00:31:00.027Z,15.83
2018-12-16T00:35:03.445Z,14.53
2018-12-16T00:39:06.317Z,14.97
2018-12-16T00:43:09.193Z,13.63
2018-12-16T00:47:12.227Z,13.63
2018-12-16T00:51:15.463Z,14.97
2018-12-16T00:55:18.462Z,15.13
2018-12-16T00:59:21.423Z,15.27
2018-12-16T01:03:24.553Z,14.20
2018-12-16T01:07:27.705Z,14.00
2018-12-16T01:11:30.909Z,15.47
2018-12-16T01:15:34.041Z,14.77
2018-12-16T01:19:37.013Z,13.40
2018-12-16T01:23:39.990Z,13.63
2018-12-16T01:27:43.229Z,13.50
2018-12-16T01:31:46.106Z,15.17
2018-12-16T01:35:49.310Z,15.23
2018-12-16T01:39:52.177Z,14.97
2018-12-16T01:43:55.037Z,14.53
2018-12-16T01:47:58.189Z,12.70
2018-12-16T01:52:01.228Z,14.50
2018-12-16T01:56:04.505Z,14.00
2018-12-16T02:00:08.189Z,13.70
2018-12-16T02:04:11.348Z,13.03
2018-12-16T02:08:14.493Z,14.80
2018-12-16T02:12:17.445Z,13.17
2018-12-16T02:16:20.325Z,13.80
2018-12-16T02:20:23.546Z,14.37
2018-12-16T02:24:26.418Z,12.50
2018-12-16T02:28:29.392Z,15.40
2018-12-16T02:32:32.485Z,14.37
2018-12-16T02:36:35.425Z,16.57
2018-12-16T02:40:38.578Z,14.70
2018-12-16T02:44:41.453Z,13.13
2018-12-16T02:48:44.321Z,14.80
2018-12-16T02:52:47.209Z,14.40
2018-12-16T02:56:50.205Z,16.33
2018-12-16T03:00:53.174Z,14.07
2018-12-16T03:04:56.051Z,15.50
2018-12-16T03:08:59.130Z,14.30
2018-12-16T03:13:02.271Z,15.57
2018-12-16T03:17:05.218Z,14.60
2018-12-16T03:21:08.366Z,15.20
2018-12-16T03:25:11.322Z,15.43
2018-12-16T03:29:14.214Z,14.47
2018-12-16T03:33:17.303Z,15.70
2018-12-16T03:37:20.383Z,16.27
2018-12-16T03:41:23.341Z,16.20
2018-12-16T03:45:26.270Z,17.07
2018-12-16T03:49:29.161Z,16.70
2018-12-16T03:53:32.038Z,17.63
2018-12-16T03:57:35.264Z,16.13
2018-12-16T04:01:38.491Z,16.80
2018-12-16T04:05:41.566Z,14.53
2018-12-16T04:09:44.713Z,14.80
2018-12-16T04:13:47.589Z,16.10
2018-12-16T04:17:50.465Z,15.20
2018-12-16T04:21:53.727Z,16.93
2018-12-16T04:25:56.794Z,16.40
2018-12-16T04:29:59.681Z,15.10
2018-12-16T04:34:02.617Z,16.73
2018-12-16T04:38:05.709Z,17.53
2018-12-16T04:42:08.573Z,15.97
2018-12-16T04:46:11.714Z,16.33
2018-12-16T04:50:14.865Z,15.70
2018-12-16T04:54:17.941Z,15.87
2018-12-16T04:58:21.085Z,15.73
2018-12-16T05:02:24.197Z,15.80
2018-12-16T05:06:27.349Z,15.27
2018-12-16T05:10:30.582Z,15.37
2018-12-16T05:14:33.446Z,16.10
2018-12-16T05:18:36.485Z,15.87
2018-12-16T05:22:39.577Z,16.30
2018-12-16T05:26:42.457Z,16.83
2018-12-16T05:30:45.351Z,15.53
2018-12-16T05:34:48.313Z,16.43
2018-12-16T05:38:51.201Z,16.60
2018-12-16T05:42:54.083Z,17.50
2018-12-16T05:46:57.154Z,16.43
2018-12-16T05:51:00.033Z,16.93
2018-12-16T05:55:02.988Z,16.63
2018-12-16T05:59:05.880Z,17.70
2018-12-16T06:03:08.873Z,17.67
2018-12-16T06:07:12.056Z,16.17
2018-12-16T06:11:15.214Z,18.30
2018-12-16T06:15:18.313Z,17.67
2018-12-16T06:19:21.325Z,16.70
2018-12-16T06:23:24.806Z,17.97
2018-12-16T06:27:27.949Z,16.63
2018-12-16T06:31:31.134Z,17.47
2018-12-16T06:35:33.989Z,16.90
2018-12-16T06:39:36.861Z,19.17
2018-12-16T06:43:39.729Z,16.53
2018-12-16T06:47:42.605Z,17.10
2018-12-16T06:51:45.685Z,17.60
2018-12-16T06:55:48.712Z,19.23
2018-12-16T06:59:51.861Z,17.33
2018-12-16T07:03:55.010Z,16.10
2018-12-16T07:07:57.874Z,17.77
2018-12-16T07:12:00.789Z,19.97
2018-12-16T07:16:03.798Z,18.97
2018-12-16T07:20:07.025Z,16.50
2018-12-16T07:24:09.933Z,17.03
2018-12-16T07:28:12.870Z,18.03
2018-12-16T07:32:15.804Z,17.20
2018-12-16T07:36:18.741Z,19.43
2018-12-16T07:40:21.669Z,18.40
2018-12-16T07:44:24.561Z,18.10
2018-12-16T07:48:27.438Z,19.60
2018-12-16T07:52:30.453Z,18.63
2018-12-16T07:56:33.389Z,19.00
2018-12-16T08:00:38.186Z,18.13
2018-12-16T08:04:41.217Z,21.20
2018-12-16T08:08:44.107Z,20.30
2018-12-16T08:12:47.010Z,20.77
2018-12-16T08:16:49.912Z,19.50
2018-12-16T08:20:52.799Z,18.67
2018-12-16T08:24:55.933Z,19.90
2018-12-16T08:28:58.813Z,21.40
2018-12-16T08:33:01.751Z,21.50
2018-12-16T08:37:05.014Z,22.97
2018-12-16T08:41:08.254Z,22.80
2018-12-16T08:45:11.342Z,23.37
2018-12-16T08:49:14.451Z,20.70
2018-12-16T08:53:17.549Z,21.30
2018-12-16T08:57:20.680Z,20.60
2018-12-16T09:01:23.792Z,23.30
2018-12-16T09:05:26.697Z,20.00
2018-12-16T09:09:30.157Z,23.87
2018-12-16T09:13:33.063Z,22.30
2018-12-16T09:17:35.933Z,22.07
2018-12-16T09:21:39.064Z,23.90
2018-12-16T09:25:42.251Z,24.37
2018-12-16T09:29:45.152Z,26.50
2018-12-16T09:33:48.061Z,23.40
2018-12-16T09:37:51.178Z,23.60
2018-12-16T09:41:54.081Z,24.57
2018-12-16T09:45:57.677Z,21.00
2018-12-16T09:50:00.573Z,23.80
2018-12-16T09:54:03.541Z,25.63
2018-12-16T09:58:06.746Z,26.77
2018-12-16T10:02:09.636Z,25.17
2018-12-16T10:06:12.517Z,26.70
2018-12-16T10:10:15.481Z,27.87
2018-12-16T10:14:18.676Z,28.20
2018-12-16T10:18:21.573Z,26.73
2018-12-16T10:22:24.772Z,30.10
2018-12-16T10:26:27.784Z,28.40
2018-12-16T10:30:30.732Z,26.93
2018-12-16T10:34:33.960Z,29.47
2018-12-16T10:38:36.873Z,27.70
2018-12-16T10:42:39.778Z,27.90
2018-12-16T10:46:42.910Z,27.40
2018-12-16T10:50:46.194Z,28.67
2018-12-16T10:54:49.079Z,29.47
2018-12-16T10:58:52.229Z,28.23
2018-12-16T11:02:55.171Z,27.53
2018-12-16T11:06:58.082Z,29.50
2018-12-16T11:11:01.169Z,29.50
2018-12-16T11:15:04.656Z,30.30
2018-12-16T11:19:07.948Z,28.63
2018-12-16T11:23:11.083Z,29.30
2018-12-16T11:27:14.191Z,30.87
2018-12-16T11:31:17.160Z,29.67
2018-12-16T11:35:20.158Z,28.77
2018-12-16T11:39:23.288Z,35.50
2018-12-16T11:43:26.449Z,33.50
2018-12-16T11:47:29.365Z,31.20
2018-12-16T11:51:32.445Z,33.17
2018-12-16T11:55:35.728Z,32.30
2018-12-16T11:59:38.682Z,31.97
2018-12-16T12:03:41.595Z,33.23
2018-12-16T12:07:44.554Z,30.47
2018-12-16T12:11:47.474Z,33.37
2018-12-16T12:15:50.615Z,32.83
2018-12-16T12:19:53.800Z,35.93
2018-12-16T12:23:57.061Z,35.83
2018-12-16T12:28:00.174Z,32.60
2018-12-16T12:32:03.332Z,32.27
2018-12-16T12:36:06.578Z,34.97
2018-12-16T12:40:09.821Z,35.00
2018-12-16T12:44:12.796Z,35.00
2018-12-16T12:48:15.910Z,31.73
2018-12-16T12:52:18.798Z,33.43
2018-12-16T12:56:21.698Z,32.43
2018-12-16T13:00:25.696Z,32.63
2018-12-16T13:04:28.978Z,32.33
2018-12-16T13:08:32.146Z,33.60
2018-12-16T13:12:35.290Z,34.83
2018-12-16T13:16:38.393Z,33.40
2018-12-16T13:20:41.436Z,33.50
2018-12-16T13:24:49.980Z,35.87
2018-12-16T13:28:53.129Z,33.33
2018-12-16T13:32:56.225Z,33.20
2018-12-16T13:36:59.121Z,33.57
2018-12-16T13:41:02.069Z,34.30
2018-12-16T13:45:05.677Z,34.03
2018-12-16T13:49:08.663Z,33.97
2018-12-16T13:53:11.550Z,37.17
2018-12-16T13:57:14.662Z,34.00
2018-12-16T14:01:18.398Z,31.53
2018-12-16T14:05:21.553Z,31.00
2018-12-16T14:09:24.416Z,32.00
2018-12-16T14:13:27.511Z,32.90
2018-12-16T14:17:30.444Z,31.70
2018-12-16T14:21:33.421Z,30.60
2018-12-16T14:25:36.560Z,32.30
2018-12-16T14:29:39.641Z,34.60
2018-12-16T14:33:42.613Z,33.27
2018-12-16T14:37:45.605Z,32.20
2018-12-16T14:41:48.465Z,30.60
2018-12-16T14:45:51.341Z,31.80
2018-12-16T14:49:54.490Z,30.50
2018-12-16T14:53:57.718Z,32.57
2018-12-16T14:58:00.626Z,33.57
2018-12-16T15:02:03.846Z,31.53
2018-12-16T15:06:06.881Z,31.03
2018-12-16T15:10:10.293Z,30.63
2018-12-16T15:14:13.149Z,30.97
2018-12-16T15:18:16.250Z,33.43
2018-12-16T15:22:19.121Z,31.50
2018-12-16T15:26:22.098Z,32.27
2018-12-16T15:30:25.336Z,29.57
2018-12-16T15:34:28.409Z,31.53
2018-12-16T15:38:31.571Z,31.80
2018-12-16T15:42:34.588Z,31.93
2018-12-16T15:46:37.672Z,30.70
2018-12-16T15:50:40.635Z,29.07
2018-12-16T15:54:43.494Z,29.70
2018-12-16T15:58:46.434Z,28.30
2018-12-16T16:02:49.310Z,26.60
2018-12-16T16:06:52.193Z,24.60
2018-12-16T16:10:55.146Z,26.70
2018-12-16T16:14:58.021Z,27.80
2018-12-16T16:19:01.187Z,25.47
2018-12-16T16:23:04.221Z,28.13
2018-12-16T16:27:07.295Z,23.43
2018-12-16T16:31:10.649Z,24.13
2018-12-16T16:35:13.573Z,24.80
2018-12-16T16:39:16.485Z,24.90
2018-12-16T16:43:19.565Z,27.80
2018-12-16T16:47:22.444Z,26.23
2018-12-16T16:51:25.389Z,26.37
2018-12-16T16:55:28.571Z,27.57
2018-12-16T16:59:31.517Z,27.00
2018-12-16T17:03:34.833Z,26.13
2018-12-16T17:07:37.701Z,23.00
2018-12-16T17:11:40.644Z,25.90
2018-12-16T17:15:43.725Z,26.47
2018-12-16T17:19:46.691Z,23.80
2018-12-16T17:23:49.561Z,25.40
2018-12-16T17:27:52.598Z,26.70
2018-12-16T17:31:55.749Z,22.40
2018-12-16T17:35:58.693Z,23.93
2018-12-16T17:40:01.664Z,24.40
2018-12-16T17:44:05.009Z,22.93
2018-12-16T17:48:07.881Z,25.77
2018-12-16T17:52:11.164Z,24.50
2018-12-16T17:56:14.038Z,25.10
2018-12-16T18:00:17.073Z,26.53
2018-12-16T18:04:20.155Z,25.77
2018-12-16T18:08:23.137Z,26.23
2018-12-16T18:12:26.169Z,26.77
2018-12-16T18:16:29.201Z,26.57
2018-12-16T18:20:32.373Z,24.03
2018-12-16T18:24:35.250Z,28.70
2018-12-16T18:28:38.333Z,29.17
2018-12-16T18:32:41.506Z,28.23
2018-12-16T18:36:44.377Z,26.30
2018-12-16T18:40:47.484Z,25.50
2018-12-16T18:44:50.481Z,27.50
2018-12-16T18:48:53.356Z,26.97
2018-12-16T18:52:56.494Z,26.27
2018-12-16T18:56:59.650Z,25.47
2018-12-16T19:01:02.595Z,24.57
2018-12-16T19:05:05.653Z,24.27
2018-12-16T19:09:08.865Z,25.53
2018-12-16T19:13:11.793Z,24.03
2018-12-16T19:17:14.665Z,25.97
2018-12-16T19:21:17.893Z,26.37
2018-12-16T19:25:20.829Z,27.20
2018-12-16T19:29:23.937Z,25.97
2018-12-16T19:33:26.813Z,26.60
2018-12-16T19:37:29.697Z,26.00
2018-12-16T19:41:32.593Z,27.57
2018-12-16T19:45:35.789Z,27.70
2018-12-16T19:49:38.656Z,26.50
2018-12-16T19:53:41.545Z,26.30
2018-12-16T19:57:44.625Z,25.53
2018-12-16T20:01:47.790Z,27.23
2018-12-16T20:05:56.233Z,25.30
2018-12-16T20:09:59.118Z,27.33
2018-12-16T20:14:02.190Z,26.73
2018-12-16T20:18:05.414Z,25.37
2018-12-16T20:22:08.493Z,25.90
2018-12-16T20:26:11.585Z,25.00
2018-12-16T20:30:14.665Z,29.43
2018-12-16T20:34:17.549Z,24.97
2018-12-16T20:38:20.958Z,25.80
2018-12-16T20:42:23.854Z,26.43
2018-12-16T20:46:26.929Z,24.37
2018-12-16T20:50:29.839Z,24.83
2018-12-16T20:54:32.710Z,23.57
2018-12-16T20:58:35.925Z,23.33
2018-12-16T21:02:38.913Z,26.23
2018-12-16T21:06:41.805Z,24.63
2018-12-16T21:10:44.746Z,24.30
2018-12-16T21:14:53.349Z,25.17
2018-12-16T21:18:56.637Z,21.63
2018-12-16T21:22:59.560Z,20.80
2018-12-16T21:27:02.899Z,19.23
2018-12-16T21:31:05.934Z,18.50
2018-12-16T21:35:08.918Z,19.57
2018-12-16T21:39:12.003Z,19.83
2018-12-16T21:43:14.893Z,18.97
2018-12-16T21:47:17.791Z,19.00
2018-12-16T21:51:20.737Z,19.13
2018-12-16T21:55:23.902Z,19.00
2018-12-16T21:59:26.968Z,22.80
2018-12-16T22:03:30.044Z,22.87
2018-12-16T22:07:33.209Z,20.37
2018-12-16T22:11:36.197Z,19.43
2018-12-16T22:15:39.068Z,19.87
2018-12-16T22:19:41.945Z,18.47
2018-12-16T22:23:44.820Z,20.40
2018-12-16T22:27:47.701Z,21.00
2018-12-16T22:31:50.569Z,18.27
2018-12-16T22:35:53.662Z,19.27
2018-12-16T22:39:56.700Z,22.87
2018-12-16T22:43:59.806Z,19.40
2018-12-16T22:48:02.945Z,21.77
2018-12-16T22:52:05.910Z,19.80
2018-12-16T22:56:09.046Z,20.83
2018-12-16T23:00:16.337Z,18.70
2018-12-16T23:04:19.489Z,19.20
2018-12-16T23:08:22.445Z,19.87
2018-12-16T23:12:25.589Z,17.97
2018-12-16T23:16:28.538Z,19.30
2018-12-16T23:20:31.693Z,22.90
2018-12-16T23:24:34.945Z,20.17
2018-12-16T23:28:38.037Z,18.83
2018-12-16T23:32:41.070Z,18.23
2018-12-16T23:36:43.928Z,18.90
2018-12-16T23:40:47.013Z,18.60
2018-12-16T23:44:49.896Z,19.13
2018-12-16T23:48:52.793Z,18.03
2018-12-16T23:52:55.950Z,17.53
2018-12-16T23:56:59.190Z,20.37
